sensor_id;sensor_type;location;lat;lon;timestamp;temperature;humidity
15203;DHT22;7702;51.046;5.184;2022-12-11T00:00:20;1.50;99.90
15203;DHT22;7702;51.046;5.184;2022-12-11T00:02:45;1.50;99.90
15203;DHT22;7702;51.046;5.184;2022-12-11T00:05:11;1.50;99.90
15203;DHT22;7702;51.046;5.184;2022-12-11T00:07:37;1.50;99.90
15203;DHT22;7702;51.046;5.184;2022-12-11T00:10:03;1.50;99.90
15203;DHT22;7702;51.046;5.184;2022-12-11T00:12:30;1.50;99.90
15203;DHT22;7702;51.046;5.184;2022-12-11T00:14:56;1.50;99.90
15203;DHT22;7702;51.046;5.184;2022-12-11T00:17:22;1.50;99.90
15203;DHT22;7702;51.046;5.184;2022-12-11T00:19:47;1.50;99.90
15203;DHT22;7702;51.046;5.184;2022-12-11T00:22:13;1.60;99.90
15203;DHT22;7702;51.046;5.184;2022-12-11T00:24:39;1.50;99.90
15203;DHT22;7702;51.046;5.184;2022-12-11T00:27:04;1.50;99.90
15203;DHT22;7702;51.046;5.184;2022-12-11T00:29:30;1.60;99.90
15203;DHT22;7702;51.046;5.184;2022-12-11T00:31:55;1.50;99.90
15203;DHT22;7702;51.046;5.184;2022-12-11T00:34:21;1.60;99.90
15203;DHT22;7702;51.046;5.184;2022-12-11T00:36:47;1.60;99.90
15203;DHT22;7702;51.046;5.184;2022-12-11T00:39:12;1.60;99.90
15203;DHT22;7702;51.046;5.184;2022-12-11T00:41:38;1.60;99.90
15203;DHT22;7702;51.046;5.184;2022-12-11T00:44:04;1.60;99.90
15203;DHT22;7702;51.046;5.184;2022-12-11T00:46:30;1.60;99.90
15203;DHT22;7702;51.046;5.184;2022-12-11T00:48:56;1.60;99.90
15203;DHT22;7702;51.046;5.184;2022-12-11T00:51:21;1.60;99.90
15203;DHT22;7702;51.046;5.184;2022-12-11T00:53:48;1.60;99.90
15203;DHT22;7702;51.046;5.184;2022-12-11T00:56:16;1.60;99.90
15203;DHT22;7702;51.046;5.184;2022-12-11T00:58:43;1.60;99.90
15203;DHT22;7702;51.046;5.184;2022-12-11T01:01:14;1.60;99.90
15203;DHT22;7702;51.046;5.184;2022-12-11T01:03:40;1.70;99.90
15203;DHT22;7702;51.046;5.184;2022-12-11T01:06:06;1.70;99.90
15203;DHT22;7702;51.046;5.184;2022-12-11T01:08:32;1.70;99.90
15203;DHT22;7702;51.046;5.184;2022-12-11T01:11:07;1.70;99.90
15203;DHT22;7702;51.046;5.184;2022-12-11T01:13:33;1.70;99.90
15203;DHT22;7702;51.046;5.184;2022-12-11T01:15:59;1.80;99.90
15203;DHT22;7702;51.046;5.184;2022-12-11T01:18:26;1.70;99.90
15203;DHT22;7702;51.046;5.184;2022-12-11T01:20:51;1.70;99.90
15203;DHT22;7702;51.046;5.184;2022-12-11T01:23:17;1.70;99.90
15203;DHT22;7702;51.046;5.184;2022-12-11T01:25:43;1.70;99.90
15203;DHT22;7702;51.046;5.184;2022-12-11T01:28:09;1.70;99.90
15203;DHT22;7702;51.046;5.184;2022-12-11T01:30:35;1.70;99.90
15203;DHT22;7702;51.046;5.184;2022-12-11T01:33:02;1.70;99.90
15203;DHT22;7702;51.046;5.184;2022-12-11T01:35:28;1.70;99.90
15203;DHT22;7702;51.046;5.184;2022-12-11T01:37:54;1.70;99.90
15203;DHT22;7702;51.046;5.184;2022-12-11T01:40:21;1.60;99.90
15203;DHT22;7702;51.046;5.184;2022-12-11T01:42:46;1.60;99.90
15203;DHT22;7702;51.046;5.184;2022-12-11T01:47:48;1.50;99.90
15203;DHT22;7702;51.046;5.184;2022-12-11T01:50:15;1.60;99.90
15203;DHT22;7702;51.046;5.184;2022-12-11T01:52:43;1.60;99.90
15203;DHT22;7702;51.046;5.184;2022-12-11T01:55:09;1.60;99.90
15203;DHT22;7702;51.046;5.184;2022-12-11T01:57:36;1.60;99.90
15203;DHT22;7702;51.046;5.184;2022-12-11T02:00:06;1.60;99.90
15203;DHT22;7702;51.046;5.184;2022-12-11T02:02:32;1.60;99.90
15203;DHT22;7702;51.046;5.184;2022-12-11T02:05:03;1.60;99.90
15203;DHT22;7702;51.046;5.184;2022-12-11T02:07:38;1.60;99.90
15203;DHT22;7702;51.046;5.184;2022-12-11T02:10:04;1.60;99.90
15203;DHT22;7702;51.046;5.184;2022-12-11T02:12:41;1.60;99.90
15203;DHT22;7702;51.046;5.184;2022-12-11T02:16:20;1.60;99.90
15203;DHT22;7702;51.046;5.184;2022-12-11T02:18:40;1.60;99.90
15203;DHT22;7702;51.046;5.184;2022-12-11T02:24:23;1.60;99.90
15203;DHT22;7702;51.046;5.184;2022-12-11T02:30:08;1.60;99.90
15203;DHT22;7702;51.046;5.184;2022-12-11T02:32:55;1.60;99.90
15203;DHT22;7702;51.046;5.184;2022-12-11T02:35:32;1.60;99.90
15203;DHT22;7702;51.046;5.184;2022-12-11T02:38:11;1.70;99.90
15203;DHT22;7702;51.046;5.184;2022-12-11T02:40:40;1.70;99.90
15203;DHT22;7702;51.046;5.184;2022-12-11T02:43:09;1.60;99.90
15203;DHT22;7702;51.046;5.184;2022-12-11T02:45:37;1.70;99.90
15203;DHT22;7702;51.046;5.184;2022-12-11T02:48:05;1.60;99.90
15203;DHT22;7702;51.046;5.184;2022-12-11T02:50:35;1.60;99.90
15203;DHT22;7702;51.046;5.184;2022-12-11T02:53:04;1.60;99.90
15203;DHT22;7702;51.046;5.184;2022-12-11T02:55:31;1.60;99.90
15203;DHT22;7702;51.046;5.184;2022-12-11T02:58:07;1.60;99.90
15203;DHT22;7702;51.046;5.184;2022-12-11T03:00:36;1.60;99.90
15203;DHT22;7702;51.046;5.184;2022-12-11T03:03:02;1.60;99.90
15203;DHT22;7702;51.046;5.184;2022-12-11T03:05:28;1.60;99.90
15203;DHT22;7702;51.046;5.184;2022-12-11T03:07:55;1.50;99.90
15203;DHT22;7702;51.046;5.184;2022-12-11T03:10:21;1.50;99.90
15203;DHT22;7702;51.046;5.184;2022-12-11T03:12:50;1.50;99.90
15203;DHT22;7702;51.046;5.184;2022-12-11T03:15:20;1.50;99.90
15203;DHT22;7702;51.046;5.184;2022-12-11T03:20:49;1.60;99.90
15203;DHT22;7702;51.046;5.184;2022-12-11T03:23:32;1.60;99.90
15203;DHT22;7702;51.046;5.184;2022-12-11T03:26:05;1.60;99.90
15203;DHT22;7702;51.046;5.184;2022-12-11T03:31:19;1.50;99.90
15203;DHT22;7702;51.046;5.184;2022-12-11T03:33:49;1.50;99.90
15203;DHT22;7702;51.046;5.184;2022-12-11T03:36:21;1.60;99.90
15203;DHT22;7702;51.046;5.184;2022-12-11T03:38:52;1.60;99.90
15203;DHT22;7702;51.046;5.184;2022-12-11T03:41:21;1.50;99.90
15203;DHT22;7702;51.046;5.184;2022-12-11T03:43:50;1.50;99.90
15203;DHT22;7702;51.046;5.184;2022-12-11T03:46:18;1.50;99.90
15203;DHT22;7702;51.046;5.184;2022-12-11T03:48:45;1.40;99.90
15203;DHT22;7702;51.046;5.184;2022-12-11T03:51:13;1.40;99.90
15203;DHT22;7702;51.046;5.184;2022-12-11T03:53:40;1.50;99.90
15203;DHT22;7702;51.046;5.184;2022-12-11T03:56:07;1.50;99.90
15203;DHT22;7702;51.046;5.184;2022-12-11T03:58:34;1.50;99.90
15203;DHT22;7702;51.046;5.184;2022-12-11T04:00:59;1.40;99.90
15203;DHT22;7702;51.046;5.184;2022-12-11T04:03:25;1.50;99.90
15203;DHT22;7702;51.046;5.184;2022-12-11T04:05:54;1.50;99.90
15203;DHT22;7702;51.046;5.184;2022-12-11T04:08:20;1.50;99.90
15203;DHT22;7702;51.046;5.184;2022-12-11T04:10:46;1.50;99.90
15203;DHT22;7702;51.046;5.184;2022-12-11T04:13:13;1.50;99.90
15203;DHT22;7702;51.046;5.184;2022-12-11T04:15:39;1.50;99.90
15203;DHT22;7702;51.046;5.184;2022-12-11T04:18:05;1.60;99.90
15203;DHT22;7702;51.046;5.184;2022-12-11T04:20:54;1.60;99.90
15203;DHT22;7702;51.046;5.184;2022-12-11T04:23:38;1.60;99.90
15203;DHT22;7702;51.046;5.184;2022-12-11T04:26:22;1.60;99.90
15203;DHT22;7702;51.046;5.184;2022-12-11T04:28:48;1.50;99.90
15203;DHT22;7702;51.046;5.184;2022-12-11T04:31:17;1.50;99.90
15203;DHT22;7702;51.046;5.184;2022-12-11T04:33:43;1.60;99.90
15203;DHT22;7702;51.046;5.184;2022-12-11T04:36:09;1.60;99.90
15203;DHT22;7702;51.046;5.184;2022-12-11T04:38:35;1.50;99.90
15203;DHT22;7702;51.046;5.184;2022-12-11T04:41:05;1.60;99.90
15203;DHT22;7702;51.046;5.184;2022-12-11T04:43:30;1.60;99.90
15203;DHT22;7702;51.046;5.184;2022-12-11T04:46:20;1.60;99.90
15203;DHT22;7702;51.046;5.184;2022-12-11T04:48:46;1.50;99.90
15203;DHT22;7702;51.046;5.184;2022-12-11T04:51:13;1.50;99.90
15203;DHT22;7702;51.046;5.184;2022-12-11T04:53:41;1.60;99.90
15203;DHT22;7702;51.046;5.184;2022-12-11T04:56:10;1.50;99.90
15203;DHT22;7702;51.046;5.184;2022-12-11T04:58:36;1.50;99.90
15203;DHT22;7702;51.046;5.184;2022-12-11T05:01:13;1.60;99.90
15203;DHT22;7702;51.046;5.184;2022-12-11T05:03:40;1.60;99.90
15203;DHT22;7702;51.046;5.184;2022-12-11T05:06:07;1.60;99.90
15203;DHT22;7702;51.046;5.184;2022-12-11T05:08:35;1.50;99.90
15203;DHT22;7702;51.046;5.184;2022-12-11T05:11:03;1.40;99.90
15203;DHT22;7702;51.046;5.184;2022-12-11T05:13:30;1.40;99.90
15203;DHT22;7702;51.046;5.184;2022-12-11T05:15:56;1.40;99.90
15203;DHT22;7702;51.046;5.184;2022-12-11T05:18:22;1.50;99.90
15203;DHT22;7702;51.046;5.184;2022-12-11T05:20:57;1.50;99.90
15203;DHT22;7702;51.046;5.184;2022-12-11T05:23:24;1.60;99.90
15203;DHT22;7702;51.046;5.184;2022-12-11T05:25:53;1.50;99.90
15203;DHT22;7702;51.046;5.184;2022-12-11T05:28:19;1.50;99.90
15203;DHT22;7702;51.046;5.184;2022-12-11T05:30:45;1.50;99.90
15203;DHT22;7702;51.046;5.184;2022-12-11T05:33:12;1.50;99.90
15203;DHT22;7702;51.046;5.184;2022-12-11T05:35:38;1.50;99.90
15203;DHT22;7702;51.046;5.184;2022-12-11T05:38:03;1.50;99.90
15203;DHT22;7702;51.046;5.184;2022-12-11T05:40:29;1.50;99.90
15203;DHT22;7702;51.046;5.184;2022-12-11T05:42:55;1.50;99.90
15203;DHT22;7702;51.046;5.184;2022-12-11T05:45:20;1.50;99.90
15203;DHT22;7702;51.046;5.184;2022-12-11T05:47:46;1.50;99.90
15203;DHT22;7702;51.046;5.184;2022-12-11T05:50:12;1.40;99.90
15203;DHT22;7702;51.046;5.184;2022-12-11T05:52:37;1.40;99.90
15203;DHT22;7702;51.046;5.184;2022-12-11T05:55:03;1.40;99.90
15203;DHT22;7702;51.046;5.184;2022-12-11T05:57:29;1.40;99.90
15203;DHT22;7702;51.046;5.184;2022-12-11T05:59:55;1.40;99.90
15203;DHT22;7702;51.046;5.184;2022-12-11T06:02:20;1.40;99.90
15203;DHT22;7702;51.046;5.184;2022-12-11T06:04:46;1.40;99.90
15203;DHT22;7702;51.046;5.184;2022-12-11T06:07:12;1.40;99.90
15203;DHT22;7702;51.046;5.184;2022-12-11T06:09:38;1.40;99.90
15203;DHT22;7702;51.046;5.184;2022-12-11T06:12:03;1.30;99.90
15203;DHT22;7702;51.046;5.184;2022-12-11T06:14:30;1.30;99.90
15203;DHT22;7702;51.046;5.184;2022-12-11T06:16:55;1.40;99.90
15203;DHT22;7702;51.046;5.184;2022-12-11T06:19:21;1.40;99.90
15203;DHT22;7702;51.046;5.184;2022-12-11T06:21:47;1.40;99.90
15203;DHT22;7702;51.046;5.184;2022-12-11T06:24:13;1.40;99.90
15203;DHT22;7702;51.046;5.184;2022-12-11T06:26:39;1.40;99.90
15203;DHT22;7702;51.046;5.184;2022-12-11T06:29:05;1.40;99.90
15203;DHT22;7702;51.046;5.184;2022-12-11T06:31:30;1.40;99.90
15203;DHT22;7702;51.046;5.184;2022-12-11T06:33:56;1.40;99.90
15203;DHT22;7702;51.046;5.184;2022-12-11T06:36:22;1.40;99.90
15203;DHT22;7702;51.046;5.184;2022-12-11T06:38:49;1.40;99.90
15203;DHT22;7702;51.046;5.184;2022-12-11T06:41:15;1.40;99.90
15203;DHT22;7702;51.046;5.184;2022-12-11T06:43:42;1.40;99.90
15203;DHT22;7702;51.046;5.184;2022-12-11T06:46:10;1.30;99.90
15203;DHT22;7702;51.046;5.184;2022-12-11T06:48:36;1.30;99.90
15203;DHT22;7702;51.046;5.184;2022-12-11T06:51:07;1.30;99.90
15203;DHT22;7702;51.046;5.184;2022-12-11T06:53:33;1.20;99.90
15203;DHT22;7702;51.046;5.184;2022-12-11T06:56:09;1.30;99.90
15203;DHT22;7702;51.046;5.184;2022-12-11T06:58:35;1.30;99.90
15203;DHT22;7702;51.046;5.184;2022-12-11T07:01:02;1.30;99.90
15203;DHT22;7702;51.046;5.184;2022-12-11T07:03:28;1.30;99.90
15203;DHT22;7702;51.046;5.184;2022-12-11T07:05:58;1.30;99.90
15203;DHT22;7702;51.046;5.184;2022-12-11T07:08:23;1.30;99.90
15203;DHT22;7702;51.046;5.184;2022-12-11T07:10:49;1.40;99.90
15203;DHT22;7702;51.046;5.184;2022-12-11T07:13:15;1.40;99.90
15203;DHT22;7702;51.046;5.184;2022-12-11T07:15:40;1.30;99.90
15203;DHT22;7702;51.046;5.184;2022-12-11T07:18:06;1.30;99.90
15203;DHT22;7702;51.046;5.184;2022-12-11T07:20:32;1.40;99.90
15203;DHT22;7702;51.046;5.184;2022-12-11T07:22:57;1.40;99.90
15203;DHT22;7702;51.046;5.184;2022-12-11T07:25:23;1.40;99.90
15203;DHT22;7702;51.046;5.184;2022-12-11T07:27:48;1.40;99.90
15203;DHT22;7702;51.046;5.184;2022-12-11T07:30:14;1.40;99.90
15203;DHT22;7702;51.046;5.184;2022-12-11T07:32:40;1.40;99.90
15203;DHT22;7702;51.046;5.184;2022-12-11T07:35:06;1.30;99.90
15203;DHT22;7702;51.046;5.184;2022-12-11T07:37:31;1.30;99.90
15203;DHT22;7702;51.046;5.184;2022-12-11T07:39:57;1.30;99.90
15203;DHT22;7702;51.046;5.184;2022-12-11T07:42:23;1.30;99.90
15203;DHT22;7702;51.046;5.184;2022-12-11T07:44:48;1.30;99.90
15203;DHT22;7702;51.046;5.184;2022-12-11T07:47:14;1.30;99.90
15203;DHT22;7702;51.046;5.184;2022-12-11T07:49:40;1.30;99.90
15203;DHT22;7702;51.046;5.184;2022-12-11T07:52:05;1.20;99.90
15203;DHT22;7702;51.046;5.184;2022-12-11T07:54:31;1.20;99.90
15203;DHT22;7702;51.046;5.184;2022-12-11T07:56:57;1.20;99.90
15203;DHT22;7702;51.046;5.184;2022-12-11T07:59:22;1.20;99.90
15203;DHT22;7702;51.046;5.184;2022-12-11T08:01:48;1.30;99.90
15203;DHT22;7702;51.046;5.184;2022-12-11T08:04:14;1.30;99.90
15203;DHT22;7702;51.046;5.184;2022-12-11T08:06:40;1.20;99.90
15203;DHT22;7702;51.046;5.184;2022-12-11T08:09:09;1.20;99.90
15203;DHT22;7702;51.046;5.184;2022-12-11T08:11:35;1.20;99.90
15203;DHT22;7702;51.046;5.184;2022-12-11T08:14:02;1.20;99.90
15203;DHT22;7702;51.046;5.184;2022-12-11T08:16:28;1.30;99.90
15203;DHT22;7702;51.046;5.184;2022-12-11T08:18:54;1.30;99.90
15203;DHT22;7702;51.046;5.184;2022-12-11T08:21:22;1.30;99.90
15203;DHT22;7702;51.046;5.184;2022-12-11T08:23:49;1.40;99.90
15203;DHT22;7702;51.046;5.184;2022-12-11T08:26:20;1.40;99.90
15203;DHT22;7702;51.046;5.184;2022-12-11T08:28:46;1.40;99.90
15203;DHT22;7702;51.046;5.184;2022-12-11T08:31:15;1.30;99.90
15203;DHT22;7702;51.046;5.184;2022-12-11T08:33:40;1.30;99.90
15203;DHT22;7702;51.046;5.184;2022-12-11T08:36:09;1.30;99.90
15203;DHT22;7702;51.046;5.184;2022-12-11T08:38:35;1.30;99.90
15203;DHT22;7702;51.046;5.184;2022-12-11T08:41:15;1.20;99.90
15203;DHT22;7702;51.046;5.184;2022-12-11T08:43:42;1.20;99.90
15203;DHT22;7702;51.046;5.184;2022-12-11T08:46:08;1.30;99.90
15203;DHT22;7702;51.046;5.184;2022-12-11T08:48:35;1.30;99.90
15203;DHT22;7702;51.046;5.184;2022-12-11T08:51:04;1.20;99.90
15203;DHT22;7702;51.046;5.184;2022-12-11T08:53:31;1.20;99.90
15203;DHT22;7702;51.046;5.184;2022-12-11T08:56:06;1.20;99.90
15203;DHT22;7702;51.046;5.184;2022-12-11T08:58:31;1.30;99.90
15203;DHT22;7702;51.046;5.184;2022-12-11T09:00:57;1.30;99.90
15203;DHT22;7702;51.046;5.184;2022-12-11T09:03:23;1.30;99.90
15203;DHT22;7702;51.046;5.184;2022-12-11T09:05:50;1.30;99.90
15203;DHT22;7702;51.046;5.184;2022-12-11T09:08:16;1.30;99.90
15203;DHT22;7702;51.046;5.184;2022-12-11T09:10:41;1.30;99.90
15203;DHT22;7702;51.046;5.184;2022-12-11T09:13:07;1.30;99.90
15203;DHT22;7702;51.046;5.184;2022-12-11T09:15:33;1.40;99.90
15203;DHT22;7702;51.046;5.184;2022-12-11T09:17:58;1.40;99.90
15203;DHT22;7702;51.046;5.184;2022-12-11T09:20:24;1.50;99.90
15203;DHT22;7702;51.046;5.184;2022-12-11T09:22:50;1.50;99.90
15203;DHT22;7702;51.046;5.184;2022-12-11T09:25:15;1.50;99.90
15203;DHT22;7702;51.046;5.184;2022-12-11T09:27:41;1.60;99.90
15203;DHT22;7702;51.046;5.184;2022-12-11T09:30:07;1.60;99.90
15203;DHT22;7702;51.046;5.184;2022-12-11T09:32:33;1.60;99.90
15203;DHT22;7702;51.046;5.184;2022-12-11T09:34:59;1.60;99.90
15203;DHT22;7702;51.046;5.184;2022-12-11T09:37:24;1.70;99.90
15203;DHT22;7702;51.046;5.184;2022-12-11T09:39:50;1.70;99.90
15203;DHT22;7702;51.046;5.184;2022-12-11T09:45:18;1.60;99.90
15203;DHT22;7702;51.046;5.184;2022-12-11T09:47:46;1.70;99.90
15203;DHT22;7702;51.046;5.184;2022-12-11T09:50:27;1.70;99.90
15203;DHT22;7702;51.046;5.184;2022-12-11T09:53:04;1.80;99.90
15203;DHT22;7702;51.046;5.184;2022-12-11T09:56:04;1.60;99.90
15203;DHT22;7702;51.046;5.184;2022-12-11T10:01:53;1.60;99.90
15203;DHT22;7702;51.046;5.184;2022-12-11T10:06:59;1.60;99.90
15203;DHT22;7702;51.046;5.184;2022-12-11T10:09:55;1.60;99.90
15203;DHT22;7702;51.046;5.184;2022-12-11T10:12:43;1.70;99.90
15203;DHT22;7702;51.046;5.184;2022-12-11T10:17:50;2.00;99.90
15203;DHT22;7702;51.046;5.184;2022-12-11T10:20:33;2.00;99.90
15203;DHT22;7702;51.046;5.184;2022-12-11T10:23:02;2.10;99.90
15203;DHT22;7702;51.046;5.184;2022-12-11T10:25:35;2.00;99.90
15203;DHT22;7702;51.046;5.184;2022-12-11T10:28:27;1.90;99.90
15203;DHT22;7702;51.046;5.184;2022-12-11T10:36:19;2.00;99.90
15203;DHT22;7702;51.046;5.184;2022-12-11T10:38:48;1.90;99.90
15203;DHT22;7702;51.046;5.184;2022-12-11T10:41:17;1.80;99.90
15203;DHT22;7702;51.046;5.184;2022-12-11T10:43:45;1.80;99.90
15203;DHT22;7702;51.046;5.184;2022-12-11T10:46:15;1.80;99.90
15203;DHT22;7702;51.046;5.184;2022-12-11T10:49:19;1.80;99.90
15203;DHT22;7702;51.046;5.184;2022-12-11T10:51:45;1.90;99.90
15203;DHT22;7702;51.046;5.184;2022-12-11T10:54:31;1.90;99.90
15203;DHT22;7702;51.046;5.184;2022-12-11T10:56:59;1.90;99.90
15203;DHT22;7702;51.046;5.184;2022-12-11T10:59:44;1.90;99.90
15203;DHT22;7702;51.046;5.184;2022-12-11T11:02:29;1.90;99.90
15203;DHT22;7702;51.046;5.184;2022-12-11T11:04:58;1.80;99.90
15203;DHT22;7702;51.046;5.184;2022-12-11T11:07:29;1.80;99.90
15203;DHT22;7702;51.046;5.184;2022-12-11T11:12:47;1.90;99.90
15203;DHT22;7702;51.046;5.184;2022-12-11T11:15:21;1.90;99.90
15203;DHT22;7702;51.046;5.184;2022-12-11T11:17:51;1.90;99.90
15203;DHT22;7702;51.046;5.184;2022-12-11T11:20:21;2.00;99.90
15203;DHT22;7702;51.046;5.184;2022-12-11T11:22:50;1.90;99.90
15203;DHT22;7702;51.046;5.184;2022-12-11T11:25:19;1.90;99.90
15203;DHT22;7702;51.046;5.184;2022-12-11T11:27:57;1.90;99.90
15203;DHT22;7702;51.046;5.184;2022-12-11T11:30:36;1.80;99.90
15203;DHT22;7702;51.046;5.184;2022-12-11T11:33:21;1.70;99.90
15203;DHT22;7702;51.046;5.184;2022-12-11T11:36:16;1.80;99.90
15203;DHT22;7702;51.046;5.184;2022-12-11T11:41:39;1.80;99.90
15203;DHT22;7702;51.046;5.184;2022-12-11T11:44:12;1.80;99.90
15203;DHT22;7702;51.046;5.184;2022-12-11T11:46:46;1.80;99.90
15203;DHT22;7702;51.046;5.184;2022-12-11T11:57:58;1.60;99.90
15203;DHT22;7702;51.046;5.184;2022-12-11T12:00:27;1.70;99.90
15203;DHT22;7702;51.046;5.184;2022-12-11T12:03:02;1.70;99.90
15203;DHT22;7702;51.046;5.184;2022-12-11T12:10:44;1.70;99.90
15203;DHT22;7702;51.046;5.184;2022-12-11T12:13:22;1.60;99.90
15203;DHT22;7702;51.046;5.184;2022-12-11T12:15:54;1.70;99.90
15203;DHT22;7702;51.046;5.184;2022-12-11T12:18:40;1.80;99.90
15203;DHT22;7702;51.046;5.184;2022-12-11T12:21:18;1.80;99.90
15203;DHT22;7702;51.046;5.184;2022-12-11T12:29:45;1.60;99.90
15203;DHT22;7702;51.046;5.184;2022-12-11T12:32:22;1.60;99.90
15203;DHT22;7702;51.046;5.184;2022-12-11T12:35:05;1.60;99.90
15203;DHT22;7702;51.046;5.184;2022-12-11T12:43:35;1.50;99.90
15203;DHT22;7702;51.046;5.184;2022-12-11T12:49:01;1.50;99.90
15203;DHT22;7702;51.046;5.184;2022-12-11T12:51:29;1.60;99.90
15203;DHT22;7702;51.046;5.184;2022-12-11T12:53:59;1.50;99.90
15203;DHT22;7702;51.046;5.184;2022-12-11T12:56:28;1.60;99.90
15203;DHT22;7702;51.046;5.184;2022-12-11T12:58:56;1.60;99.90
15203;DHT22;7702;51.046;5.184;2022-12-11T13:01:24;1.60;99.90
15203;DHT22;7702;51.046;5.184;2022-12-11T13:06:43;1.80;99.90
15203;DHT22;7702;51.046;5.184;2022-12-11T13:11:41;2.20;99.90
15203;DHT22;7702;51.046;5.184;2022-12-11T13:16:38;2.50;99.90
15203;DHT22;7702;51.046;5.184;2022-12-11T13:24:29;2.40;99.90
15203;DHT22;7702;51.046;5.184;2022-12-11T13:26:55;2.30;99.90
15203;DHT22;7702;51.046;5.184;2022-12-11T13:34:49;2.20;99.90
15203;DHT22;7702;51.046;5.184;2022-12-11T13:37:26;2.10;99.90
15203;DHT22;7702;51.046;5.184;2022-12-11T13:39:54;2.10;99.90
15203;DHT22;7702;51.046;5.184;2022-12-11T13:42:36;2.10;99.90
15203;DHT22;7702;51.046;5.184;2022-12-11T13:45:04;2.10;99.90
15203;DHT22;7702;51.046;5.184;2022-12-11T13:47:31;2.00;99.90
15203;DHT22;7702;51.046;5.184;2022-12-11T13:50:28;2.10;99.90
15203;DHT22;7702;51.046;5.184;2022-12-11T13:52:57;2.10;99.90
15203;DHT22;7702;51.046;5.184;2022-12-11T13:55:32;2.00;99.90
15203;DHT22;7702;51.046;5.184;2022-12-11T13:57:58;2.10;99.90
15203;DHT22;7702;51.046;5.184;2022-12-11T14:00:26;2.20;99.90
15203;DHT22;7702;51.046;5.184;2022-12-11T14:02:55;2.20;99.90
15203;DHT22;7702;51.046;5.184;2022-12-11T14:05:22;2.20;99.90
15203;DHT22;7702;51.046;5.184;2022-12-11T14:07:54;2.20;99.90
15203;DHT22;7702;51.046;5.184;2022-12-11T14:10:26;2.10;99.90
15203;DHT22;7702;51.046;5.184;2022-12-11T14:13:04;2.10;99.90
15203;DHT22;7702;51.046;5.184;2022-12-11T14:15:32;2.20;99.90
15203;DHT22;7702;51.046;5.184;2022-12-11T14:17:59;2.20;99.90
15203;DHT22;7702;51.046;5.184;2022-12-11T14:20:31;2.20;99.90
15203;DHT22;7702;51.046;5.184;2022-12-11T14:23:12;2.20;99.90
15203;DHT22;7702;51.046;5.184;2022-12-11T14:25:40;2.30;99.90
15203;DHT22;7702;51.046;5.184;2022-12-11T14:28:14;2.30;99.90
15203;DHT22;7702;51.046;5.184;2022-12-11T14:30:48;2.30;99.90
15203;DHT22;7702;51.046;5.184;2022-12-11T14:33:14;2.30;99.90
15203;DHT22;7702;51.046;5.184;2022-12-11T14:35:42;2.20;99.90
15203;DHT22;7702;51.046;5.184;2022-12-11T14:38:19;2.20;99.90
15203;DHT22;7702;51.046;5.184;2022-12-11T14:40:50;2.20;99.90
15203;DHT22;7702;51.046;5.184;2022-12-11T14:43:26;2.20;99.90
15203;DHT22;7702;51.046;5.184;2022-12-11T14:45:58;2.30;99.90
15203;DHT22;7702;51.046;5.184;2022-12-11T14:48:29;2.30;99.90
15203;DHT22;7702;51.046;5.184;2022-12-11T14:51:00;2.40;99.90
15203;DHT22;7702;51.046;5.184;2022-12-11T14:53:31;2.30;99.90
15203;DHT22;7702;51.046;5.184;2022-12-11T14:56:00;2.30;99.90
15203;DHT22;7702;51.046;5.184;2022-12-11T14:58:27;2.30;99.90
15203;DHT22;7702;51.046;5.184;2022-12-11T15:01:04;2.20;99.90
15203;DHT22;7702;51.046;5.184;2022-12-11T15:03:41;2.20;99.90
15203;DHT22;7702;51.046;5.184;2022-12-11T15:06:29;2.20;99.90
15203;DHT22;7702;51.046;5.184;2022-12-11T15:08:55;2.20;99.90
15203;DHT22;7702;51.046;5.184;2022-12-11T15:11:22;2.20;99.90
15203;DHT22;7702;51.046;5.184;2022-12-11T15:13:57;2.10;99.90
15203;DHT22;7702;51.046;5.184;2022-12-11T15:16:25;2.10;99.90
15203;DHT22;7702;51.046;5.184;2022-12-11T15:18:53;2.00;99.90
15203;DHT22;7702;51.046;5.184;2022-12-11T15:21:28;2.10;99.90
15203;DHT22;7702;51.046;5.184;2022-12-11T15:23:56;2.10;99.90
15203;DHT22;7702;51.046;5.184;2022-12-11T15:26:52;2.10;99.90
15203;DHT22;7702;51.046;5.184;2022-12-11T15:29:35;2.10;99.90
15203;DHT22;7702;51.046;5.184;2022-12-11T15:34:40;2.10;99.90
15203;DHT22;7702;51.046;5.184;2022-12-11T15:37:29;2.10;99.90
15203;DHT22;7702;51.046;5.184;2022-12-11T15:39:57;2.10;99.90
15203;DHT22;7702;51.046;5.184;2022-12-11T15:42:34;2.00;99.90
15203;DHT22;7702;51.046;5.184;2022-12-11T15:45:01;2.00;99.90
15203;DHT22;7702;51.046;5.184;2022-12-11T15:47:29;2.00;99.90
15203;DHT22;7702;51.046;5.184;2022-12-11T15:52:44;2.10;99.90
15203;DHT22;7702;51.046;5.184;2022-12-11T15:55:10;2.10;99.90
15203;DHT22;7702;51.046;5.184;2022-12-11T15:57:36;2.10;99.90
15203;DHT22;7702;51.046;5.184;2022-12-11T16:00:03;2.00;99.90
15203;DHT22;7702;51.046;5.184;2022-12-11T16:02:32;2.00;99.90
15203;DHT22;7702;51.046;5.184;2022-12-11T16:04:57;2.00;99.90
15203;DHT22;7702;51.046;5.184;2022-12-11T16:07:24;2.00;99.90
15203;DHT22;7702;51.046;5.184;2022-12-11T16:09:51;2.00;99.90
15203;DHT22;7702;51.046;5.184;2022-12-11T16:12:17;2.00;99.90
15203;DHT22;7702;51.046;5.184;2022-12-11T16:14:44;2.00;99.90
15203;DHT22;7702;51.046;5.184;2022-12-11T16:17:11;2.00;99.90
15203;DHT22;7702;51.046;5.184;2022-12-11T16:19:39;1.90;99.90
15203;DHT22;7702;51.046;5.184;2022-12-11T16:22:06;2.00;99.90
15203;DHT22;7702;51.046;5.184;2022-12-11T16:24:33;1.90;99.90
15203;DHT22;7702;51.046;5.184;2022-12-11T16:26:59;1.90;99.90
15203;DHT22;7702;51.046;5.184;2022-12-11T16:29:24;1.90;99.90
15203;DHT22;7702;51.046;5.184;2022-12-11T16:31:50;1.90;99.90
15203;DHT22;7702;51.046;5.184;2022-12-11T16:34:16;1.90;99.90
15203;DHT22;7702;51.046;5.184;2022-12-11T16:36:42;1.90;99.90
15203;DHT22;7702;51.046;5.184;2022-12-11T16:39:10;1.80;99.90
15203;DHT22;7702;51.046;5.184;2022-12-11T16:41:36;1.80;99.90
15203;DHT22;7702;51.046;5.184;2022-12-11T16:44:02;1.80;99.90
15203;DHT22;7702;51.046;5.184;2022-12-11T16:46:28;1.80;99.90
15203;DHT22;7702;51.046;5.184;2022-12-11T16:48:54;1.70;99.90
15203;DHT22;7702;51.046;5.184;2022-12-11T16:51:20;1.70;99.90
15203;DHT22;7702;51.046;5.184;2022-12-11T16:53:46;1.60;99.90
15203;DHT22;7702;51.046;5.184;2022-12-11T16:56:12;1.60;99.90
15203;DHT22;7702;51.046;5.184;2022-12-11T16:58:37;1.50;99.90
15203;DHT22;7702;51.046;5.184;2022-12-11T17:01:12;1.40;99.90
15203;DHT22;7702;51.046;5.184;2022-12-11T17:03:39;1.30;99.90
15203;DHT22;7702;51.046;5.184;2022-12-11T17:06:06;1.20;99.90
15203;DHT22;7702;51.046;5.184;2022-12-11T17:08:32;1.20;99.90
15203;DHT22;7702;51.046;5.184;2022-12-11T17:10:57;1.20;99.90
15203;DHT22;7702;51.046;5.184;2022-12-11T17:13:23;1.10;99.90
15203;DHT22;7702;51.046;5.184;2022-12-11T17:15:49;1.00;99.90
15203;DHT22;7702;51.046;5.184;2022-12-11T17:18:14;0.90;99.90
15203;DHT22;7702;51.046;5.184;2022-12-11T17:20:41;0.90;99.90
15203;DHT22;7702;51.046;5.184;2022-12-11T17:23:08;0.90;99.90
15203;DHT22;7702;51.046;5.184;2022-12-11T17:25:38;0.80;99.90
15203;DHT22;7702;51.046;5.184;2022-12-11T17:28:04;0.80;99.90
15203;DHT22;7702;51.046;5.184;2022-12-11T17:30:30;0.70;99.90
15203;DHT22;7702;51.046;5.184;2022-12-11T17:33:02;0.70;99.90
15203;DHT22;7702;51.046;5.184;2022-12-11T17:35:30;0.70;99.90
15203;DHT22;7702;51.046;5.184;2022-12-11T17:37:56;0.70;99.90
15203;DHT22;7702;51.046;5.184;2022-12-11T17:40:22;0.80;99.90
15203;DHT22;7702;51.046;5.184;2022-12-11T17:42:47;0.70;99.90
15203;DHT22;7702;51.046;5.184;2022-12-11T17:45:13;0.70;99.90